createdAt,value
2017-03-27T00:00:39.533Z,1018.58
2017-03-27T00:01:34.565Z,1018.65
2017-03-27T00:02:35.556Z,1018.64
2017-03-27T00:03:35.669Z,1018.69
2017-03-27T00:04:41.673Z,1018.69
2017-03-27T00:05:36.615Z,1018.68
2017-03-27T00:06:31.659Z,1018.70
2017-03-27T00:07:32.716Z,1018.72
2017-03-27T00:08:32.737Z,1018.68
2017-03-27T00:09:32.778Z,1018.70
2017-03-27T00:10:27.757Z,1018.73
2017-03-27T00:11:21.808Z,1018.71
2017-03-27T00:12:10.851Z,1018.70
2017-03-27T00:13:10.882Z,1018.67
2017-03-27T00:14:04.935Z,1018.66
2017-03-27T00:15:04.948Z,1018.68
2017-03-27T00:16:04.956Z,1018.63
2017-03-27T00:17:00.011Z,1018.63
2017-03-27T00:17:53.989Z,1018.62
2017-03-27T00:18:53.990Z,1018.64
2017-03-27T00:19:49.033Z,1018.60
2017-03-27T00:20:44.776Z,1018.64
2017-03-27T00:21:44.157Z,1018.58
2017-03-27T00:22:39.097Z,1018.59
2017-03-27T00:23:34.225Z,1018.57
2017-03-27T00:24:23.222Z,1018.54
2017-03-27T00:25:17.246Z,1018.58
2017-03-27T00:26:12.311Z,1018.60
2017-03-27T00:27:00.398Z,1018.56
2017-03-27T00:27:48.379Z,1018.55
2017-03-27T00:28:42.373Z,1018.53
2017-03-27T00:29:36.354Z,1018.53
2017-03-27T00:30:25.560Z,1018.54
2017-03-27T00:31:19.779Z,1018.52
2017-03-27T00:32:08.575Z,1018.52
2017-03-27T00:33:03.581Z,1018.50
2017-03-27T00:34:03.569Z,1018.50
2017-03-27T00:34:58.654Z,1018.47
2017-03-27T00:35:53.653Z,1018.52
2017-03-27T00:36:42.718Z,1018.52
2017-03-27T00:37:37.741Z,1018.52
2017-03-27T00:38:37.739Z,1018.45
2017-03-27T00:39:37.728Z,1018.51
2017-03-27T00:40:32.775Z,1018.46
2017-03-27T00:41:27.506Z,1018.47
2017-03-27T00:42:26.865Z,1018.49
2017-03-27T00:43:21.864Z,1018.49
2017-03-27T00:44:17.013Z,1018.48
2017-03-27T00:45:16.928Z,1018.47
2017-03-27T00:46:12.014Z,1018.50
2017-03-27T00:47:07.013Z,1018.46
2017-03-27T00:48:08.131Z,1018.45
2017-03-27T00:49:02.042Z,1018.41
2017-03-27T00:49:56.027Z,1018.43
2017-03-27T00:50:50.113Z,1018.43
2017-03-27T00:51:38.118Z,1018.39
2017-03-27T00:52:33.186Z,1018.42
2017-03-27T00:53:21.300Z,1018.42
2017-03-27T00:54:10.336Z,1018.36
2017-03-27T00:55:10.277Z,1018.38
2017-03-27T00:55:59.441Z,1018.40
2017-03-27T00:56:47.394Z,1018.38
2017-03-27T00:57:41.346Z,1018.39
2017-03-27T00:58:41.902Z,1018.40
2017-03-27T00:59:30.421Z,1018.40
2017-03-27T01:00:24.483Z,1018.41
2017-03-27T01:01:19.573Z,1018.43
2017-03-27T01:02:07.568Z,1018.42
2017-03-27T01:03:02.638Z,1018.42
2017-03-27T01:03:51.717Z,1018.43
2017-03-27T01:04:40.615Z,1018.40
2017-03-27T01:05:34.678Z,1018.42
2017-03-27T01:06:28.765Z,1018.39
2017-03-27T01:07:22.731Z,1018.43
2017-03-27T01:08:10.806Z,1018.39
2017-03-27T01:08:59.877Z,1018.41
2017-03-27T01:09:48.840Z,1018.41
2017-03-27T01:10:42.842Z,1018.40
2017-03-27T01:11:36.952Z,1018.41
2017-03-27T01:12:25.964Z,1018.41
2017-03-27T01:13:21.023Z,1018.41
2017-03-27T01:14:09.020Z,1018.44
2017-03-27T01:14:57.991Z,1018.47
2017-03-27T01:15:52.092Z,1018.41
2017-03-27T01:16:40.098Z,1018.43
2017-03-27T01:17:29.183Z,1018.41
2017-03-27T01:18:29.204Z,1018.46
2017-03-27T01:19:23.448Z,1018.46
2017-03-27T01:20:23.236Z,1018.48
2017-03-27T01:21:11.293Z,1018.54
2017-03-27T01:22:06.314Z,1018.53
2017-03-27T01:23:00.339Z,1018.47
2017-03-27T01:24:00.334Z,1018.51
2017-03-27T01:24:48.404Z,1018.53
2017-03-27T01:25:42.449Z,1018.50
2017-03-27T01:26:37.457Z,1018.48
2017-03-27T01:27:31.490Z,1018.46
2017-03-27T01:28:31.574Z,1018.49
2017-03-27T01:29:26.538Z,1018.50
2017-03-27T01:30:32.557Z,1018.52
2017-03-27T01:31:27.582Z,1018.50
2017-03-27T01:32:21.807Z,1018.51
2017-03-27T01:33:21.616Z,1018.54
2017-03-27T01:34:21.656Z,1018.52
2017-03-27T01:35:16.662Z,1018.53
2017-03-27T01:36:10.755Z,1018.52
2017-03-27T01:37:10.750Z,1018.56
2017-03-27T01:38:05.765Z,1018.49
2017-03-27T01:39:00.789Z,1018.50
2017-03-27T01:40:01.842Z,1018.46
2017-03-27T01:41:01.908Z,1018.47
2017-03-27T01:42:01.953Z,1018.46
2017-03-27T01:43:01.871Z,1018.49
2017-03-27T01:44:02.911Z,1018.50
2017-03-27T01:45:03.947Z,1018.51
2017-03-27T01:45:58.018Z,1018.50
2017-03-27T01:46:58.019Z,1018.49
2017-03-27T01:47:53.035Z,1018.47
2017-03-27T01:48:48.093Z,1018.51
2017-03-27T01:49:48.100Z,1018.51
2017-03-27T01:50:43.063Z,1018.51
2017-03-27T01:51:38.202Z,1018.52
2017-03-27T01:52:38.166Z,1018.55
2017-03-27T01:53:33.231Z,1018.55
2017-03-27T01:54:28.251Z,1018.58
2017-03-27T01:55:29.275Z,1018.58
2017-03-27T01:56:29.251Z,1018.62
2017-03-27T01:57:29.322Z,1018.63
2017-03-27T01:58:29.405Z,1018.63
2017-03-27T01:59:30.395Z,1018.61
2017-03-27T02:00:31.345Z,1018.63
2017-03-27T02:01:25.445Z,1018.59
2017-03-27T02:02:25.479Z,1018.53
2017-03-27T02:03:20.506Z,1018.52
2017-03-27T02:04:20.488Z,1018.54
2017-03-27T02:05:20.527Z,1018.49
2017-03-27T02:06:20.503Z,1018.51
2017-03-27T02:07:14.544Z,1018.51
2017-03-27T02:08:09.572Z,1018.54
2017-03-27T02:09:09.605Z,1018.47
2017-03-27T02:10:03.610Z,1018.42
2017-03-27T02:10:58.696Z,1018.42
2017-03-27T02:11:53.763Z,1018.44
2017-03-27T02:12:47.711Z,1018.42
2017-03-27T02:13:42.841Z,1018.41
2017-03-27T02:14:43.757Z,1018.39
2017-03-27T02:15:37.886Z,1018.41
2017-03-27T02:16:26.814Z,1018.40
2017-03-27T02:17:20.817Z,1018.36
2017-03-27T02:18:08.951Z,1018.33
2017-03-27T02:19:02.922Z,1018.36
2017-03-27T02:19:52.011Z,1018.33
2017-03-27T02:20:40.030Z,1018.35
2017-03-27T02:21:35.062Z,1018.30
2017-03-27T02:22:23.087Z,1018.32
2017-03-27T02:23:11.289Z,1018.28
2017-03-27T02:23:59.176Z,1018.29
2017-03-27T02:24:47.271Z,1018.31
2017-03-27T02:25:35.220Z,1018.26
2017-03-27T02:26:23.229Z,1018.28
2017-03-27T02:27:12.365Z,1018.26
2017-03-27T02:28:00.341Z,1018.25
2017-03-27T02:28:49.340Z,1018.28
2017-03-27T02:29:37.453Z,1018.23
2017-03-27T02:30:25.440Z,1018.24
2017-03-27T02:31:26.445Z,1018.20
2017-03-27T02:32:26.559Z,1018.17
2017-03-27T02:33:26.583Z,1018.12
2017-03-27T02:34:20.562Z,1018.14
2017-03-27T02:35:20.503Z,1018.15
2017-03-27T02:36:15.649Z,1018.17
2017-03-27T02:37:10.637Z,1018.17
2017-03-27T02:38:10.665Z,1018.13
2017-03-27T02:39:05.643Z,1018.17
2017-03-27T02:40:00.746Z,1018.16
2017-03-27T02:41:00.774Z,1018.15
2017-03-27T02:41:55.805Z,1018.16
2017-03-27T02:42:55.774Z,1018.14
2017-03-27T02:43:49.806Z,1018.15
2017-03-27T02:44:49.790Z,1018.11
2017-03-27T02:45:43.905Z,1018.09
2017-03-27T02:46:49.881Z,1018.07
2017-03-27T02:47:49.902Z,1018.08
2017-03-27T02:48:44.959Z,1018.07
2017-03-27T02:49:39.000Z,1018.05
2017-03-27T02:50:40.018Z,1018.06
2017-03-27T02:51:40.017Z,1018.04
2017-03-27T02:52:35.103Z,1018.04
2017-03-27T02:53:35.096Z,1018.03
2017-03-27T02:54:29.105Z,1018.02
2017-03-27T02:55:29.147Z,1018.02
2017-03-27T02:56:24.158Z,1018.04
2017-03-27T02:57:19.200Z,1018.01
2017-03-27T02:58:20.235Z,1018.04
2017-03-27T02:59:21.185Z,1018.02
2017-03-27T03:00:16.265Z,1018.08
2017-03-27T03:01:10.368Z,1018.07
2017-03-27T03:02:10.342Z,1018.09
2017-03-27T03:02:59.390Z,1018.10
2017-03-27T03:03:47.395Z,1018.10
2017-03-27T03:04:48.445Z,1018.11
2017-03-27T03:05:42.511Z,1018.11
2017-03-27T03:06:42.476Z,1018.08
2017-03-27T03:07:37.533Z,1018.07
2017-03-27T03:08:32.568Z,1018.12
2017-03-27T03:09:38.532Z,1018.09
2017-03-27T03:10:32.574Z,1018.16
2017-03-27T03:11:27.649Z,1018.08
2017-03-27T03:12:22.704Z,1018.11
2017-03-27T03:13:11.788Z,1018.11
2017-03-27T03:14:00.715Z,1018.11
2017-03-27T03:15:06.771Z,1018.13
2017-03-27T03:16:01.760Z,1018.15
2017-03-27T03:16:55.734Z,1018.15
2017-03-27T03:17:55.854Z,1018.09
2017-03-27T03:18:49.838Z,1018.15
2017-03-27T03:19:49.918Z,1018.15
2017-03-27T03:20:50.020Z,1018.15
2017-03-27T03:21:43.930Z,1018.14
2017-03-27T03:22:32.985Z,1018.15
2017-03-27T03:23:21.021Z,1018.15
2017-03-27T03:24:09.065Z,1018.15
2017-03-27T03:24:58.053Z,1018.17
2017-03-27T03:25:52.119Z,1018.20
2017-03-27T03:26:52.141Z,1018.20
2017-03-27T03:27:46.166Z,1018.18
2017-03-27T03:28:34.285Z,1018.21
2017-03-27T03:29:22.295Z,1018.17
2017-03-27T03:30:10.196Z,1018.20
2017-03-27T03:31:10.269Z,1018.21
2017-03-27T03:31:58.324Z,1018.24
2017-03-27T03:32:46.312Z,1018.20
2017-03-27T03:33:34.629Z,1018.22
2017-03-27T03:34:23.449Z,1018.22
2017-03-27T03:35:12.475Z,1018.20
2017-03-27T03:36:01.514Z,1018.23
2017-03-27T03:36:50.520Z,1018.25
2017-03-27T03:37:38.566Z,1018.24
2017-03-27T03:38:32.545Z,1018.28
2017-03-27T03:39:27.658Z,1018.25
2017-03-27T03:40:28.670Z,1018.26
2017-03-27T03:41:28.677Z,1018.28
2017-03-27T03:42:28.732Z,1018.28
2017-03-27T03:43:23.781Z,1018.25
2017-03-27T03:44:12.779Z,1018.22
2017-03-27T03:45:07.825Z,1018.23
2017-03-27T03:45:56.847Z,1018.22
2017-03-27T03:46:50.862Z,1018.19
2017-03-27T03:47:45.897Z,1018.19
2017-03-27T03:48:33.958Z,1018.15
2017-03-27T03:49:22.959Z,1018.20
2017-03-27T03:50:11.994Z,1018.23
2017-03-27T03:51:00.093Z,1018.22
2017-03-27T03:51:49.080Z,1018.23
2017-03-27T03:52:37.265Z,1018.18
2017-03-27T03:53:25.232Z,1018.23
2017-03-27T03:54:14.194Z,1018.23
2017-03-27T03:55:02.394Z,1018.25
2017-03-27T03:55:51.574Z,1018.24
2017-03-27T03:56:45.321Z,1018.26
2017-03-27T03:57:40.358Z,1018.24
2017-03-27T03:58:35.413Z,1018.24
2017-03-27T03:59:36.380Z,1018.26
2017-03-27T04:00:31.432Z,1018.27
2017-03-27T04:01:25.703Z,1018.28
2017-03-27T04:02:13.492Z,1018.27
2017-03-27T04:03:01.540Z,1018.30
2017-03-27T04:03:50.525Z,1018.27
2017-03-27T04:04:44.537Z,1018.27
2017-03-27T04:05:39.612Z,1018.31
2017-03-27T04:06:39.637Z,1018.32
2017-03-27T04:07:39.727Z,1018.34
2017-03-27T04:08:33.696Z,1018.34
2017-03-27T04:09:28.686Z,1018.31
2017-03-27T04:10:28.785Z,1018.37
2017-03-27T04:11:22.834Z,1018.31
2017-03-27T04:12:11.820Z,1018.33
2017-03-27T04:13:00.881Z,1018.31
2017-03-27T04:13:48.835Z,1018.34
2017-03-27T04:14:36.924Z,1018.31
2017-03-27T04:15:25.975Z,1018.27
2017-03-27T04:16:25.962Z,1018.36
2017-03-27T04:17:20.024Z,1018.37
2017-03-27T04:18:20.079Z,1018.39
2017-03-27T04:19:15.522Z,1018.37
2017-03-27T04:20:10.100Z,1018.37
2017-03-27T04:21:11.089Z,1018.40
2017-03-27T04:22:11.121Z,1018.43
2017-03-27T04:23:11.259Z,1018.46
2017-03-27T04:24:11.228Z,1018.41
2017-03-27T04:25:00.162Z,1018.45
2017-03-27T04:25:55.277Z,1018.38
2017-03-27T04:26:50.260Z,1018.41
2017-03-27T04:27:45.382Z,1018.40
2017-03-27T04:28:39.340Z,1018.43
2017-03-27T04:29:34.361Z,1018.44
2017-03-27T04:30:29.310Z,1018.45
2017-03-27T04:31:29.849Z,1018.44
2017-03-27T04:32:24.486Z,1018.44
2017-03-27T04:33:19.529Z,1018.43
2017-03-27T04:34:13.572Z,1018.43
2017-03-27T04:35:08.574Z,1018.44
2017-03-27T04:36:02.575Z,1018.41
2017-03-27T04:37:02.561Z,1018.43
2017-03-27T04:37:57.597Z,1018.47
2017-03-27T04:38:57.663Z,1018.48
2017-03-27T04:39:51.651Z,1018.51
2017-03-27T04:40:51.738Z,1018.51
2017-03-27T04:41:46.724Z,1018.52
2017-03-27T04:42:40.751Z,1018.57
2017-03-27T04:43:40.785Z,1018.54
2017-03-27T04:44:34.785Z,1018.53
2017-03-27T04:45:29.855Z,1018.51
2017-03-27T04:46:23.852Z,1018.50
2017-03-27T04:47:23.894Z,1018.51
2017-03-27T04:48:18.949Z,1018.52
2017-03-27T04:49:13.936Z,1018.51
2017-03-27T04:50:14.929Z,1018.55
2017-03-27T04:51:14.954Z,1018.51
2017-03-27T04:52:15.062Z,1018.52
2017-03-27T04:53:15.087Z,1018.56
2017-03-27T04:54:10.080Z,1018.55
2017-03-27T04:55:04.612Z,1018.60
2017-03-27T04:55:58.158Z,1018.61
2017-03-27T04:56:58.165Z,1018.67
2017-03-27T04:57:47.321Z,1018.65
2017-03-27T04:58:41.215Z,1018.63
2017-03-27T04:59:36.216Z,1018.64
2017-03-27T05:00:25.308Z,1018.61
2017-03-27T05:01:13.302Z,1018.61
2017-03-27T05:02:14.349Z,1018.60
2017-03-27T05:03:14.408Z,1018.61
2017-03-27T05:04:14.429Z,1018.59
2017-03-27T05:05:14.409Z,1018.61
2017-03-27T05:06:14.424Z,1018.65
2017-03-27T05:07:14.471Z,1018.66
2017-03-27T05:08:14.537Z,1018.63
2017-03-27T05:09:14.555Z,1018.67
2017-03-27T05:10:14.578Z,1018.67
2017-03-27T05:11:14.553Z,1018.68
2017-03-27T05:12:14.574Z,1018.68
2017-03-27T05:13:14.619Z,1018.66
2017-03-27T05:14:09.706Z,1018.69
2017-03-27T05:14:58.754Z,1018.65
2017-03-27T05:16:04.835Z,1018.69
2017-03-27T05:16:59.761Z,1018.74
2017-03-27T05:17:53.804Z,1018.72
2017-03-27T05:18:48.948Z,1018.72
2017-03-27T05:19:48.825Z,1018.74
2017-03-27T05:20:48.842Z,1018.76
2017-03-27T05:21:43.964Z,1018.75
2017-03-27T05:22:32.971Z,1018.77
2017-03-27T05:23:22.013Z,1018.73
2017-03-27T05:24:17.121Z,1018.79
2017-03-27T05:25:11.418Z,1018.77
2017-03-27T05:25:59.096Z,1018.75
2017-03-27T05:26:53.083Z,1018.76
2017-03-27T05:27:53.115Z,1018.81
2017-03-27T05:28:48.167Z,1018.77
2017-03-27T05:29:36.182Z,1018.76
2017-03-27T05:30:36.220Z,1018.78
2017-03-27T05:31:25.486Z,1018.78
2017-03-27T05:32:14.249Z,1018.79
2017-03-27T05:33:09.463Z,1018.80
2017-03-27T05:34:09.710Z,1018.84
2017-03-27T05:35:04.343Z,1018.81
2017-03-27T05:35:59.376Z,1018.82
2017-03-27T05:36:53.461Z,1018.81
2017-03-27T05:37:53.501Z,1018.80
2017-03-27T05:38:48.513Z,1018.84
2017-03-27T05:39:42.571Z,1018.84
2017-03-27T05:40:43.129Z,1018.83
2017-03-27T05:41:36.715Z,1018.86
2017-03-27T05:42:36.630Z,1018.87
2017-03-27T05:43:31.636Z,1018.91
2017-03-27T05:44:26.771Z,1018.93
2017-03-27T05:45:26.663Z,1018.95
2017-03-27T05:46:20.658Z,1018.96
2017-03-27T05:47:14.829Z,1018.98
2017-03-27T05:48:16.435Z,1018.99
2017-03-27T05:49:16.465Z,1019.00
2017-03-27T05:50:16.500Z,1018.96
2017-03-27T05:51:16.493Z,1019.02
2017-03-27T05:52:21.868Z,1019.05
2017-03-27T05:53:17.518Z,1019.02
2017-03-27T05:54:10.917Z,1018.97
2017-03-27T05:55:10.963Z,1019.01
2017-03-27T05:56:05.987Z,1019.02
2017-03-27T05:57:01.092Z,1019.03
2017-03-27T05:58:01.180Z,1019.03
2017-03-27T05:58:56.131Z,1019.04
2017-03-27T05:59:50.078Z,1019.03
2017-03-27T06:00:50.193Z,1018.98
2017-03-27T06:01:44.151Z,1019.03
2017-03-27T06:02:45.397Z,1019.03
2017-03-27T06:03:46.482Z,1018.99
2017-03-27T06:04:41.523Z,1019.01
2017-03-27T06:05:41.406Z,1018.99
2017-03-27T06:06:41.304Z,1019.01
2017-03-27T06:07:41.352Z,1018.98
2017-03-27T06:08:41.397Z,1019.01
2017-03-27T06:09:41.859Z,1018.99
2017-03-27T06:10:41.443Z,1019.01
2017-03-27T06:11:41.498Z,1019.01
2017-03-27T06:12:36.525Z,1018.99
2017-03-27T06:13:31.508Z,1019.02
2017-03-27T06:14:25.552Z,1019.07
2017-03-27T06:15:20.074Z,1019.08
2017-03-27T06:16:20.214Z,1019.05
2017-03-27T06:17:14.660Z,1019.07
2017-03-27T06:18:08.717Z,1019.04
2017-03-27T06:19:03.743Z,1019.02
2017-03-27T06:19:58.787Z,1019.04
2017-03-27T06:20:47.839Z,1019.01
2017-03-27T06:21:41.902Z,1019.03
2017-03-27T06:22:41.947Z,1019.02
2017-03-27T06:23:35.882Z,1019.02
2017-03-27T06:24:35.979Z,1018.99
2017-03-27T06:25:31.043Z,1019.01
2017-03-27T06:26:25.055Z,1019.01
2017-03-27T06:27:24.982Z,1019.00
2017-03-27T06:28:19.047Z,1019.04
2017-03-27T06:29:19.096Z,1018.99
2017-03-27T06:30:08.143Z,1019.02
2017-03-27T06:31:02.244Z,1019.03
2017-03-27T06:32:02.329Z,1019.06
2017-03-27T06:32:57.503Z,1019.04
2017-03-27T06:33:52.279Z,1019.06
2017-03-27T06:34:52.400Z,1019.06
2017-03-27T06:35:47.448Z,1019.06
2017-03-27T06:36:42.493Z,1019.08
2017-03-27T06:37:36.469Z,1019.12
2017-03-27T06:38:36.758Z,1019.12
2017-03-27T06:39:31.451Z,1019.12
2017-03-27T06:40:25.827Z,1019.11
2017-03-27T06:41:25.764Z,1019.08
2017-03-27T06:42:19.599Z,1019.12
2017-03-27T06:43:19.721Z,1019.11
2017-03-27T06:44:14.671Z,1019.11
2017-03-27T06:45:08.755Z,1019.12
2017-03-27T06:46:03.732Z,1019.15
2017-03-27T06:46:59.386Z,1019.17
2017-03-27T06:47:52.855Z,1019.16
2017-03-27T06:48:52.877Z,1019.17
2017-03-27T06:49:46.939Z,1019.16
2017-03-27T06:50:47.998Z,1019.19
2017-03-27T06:51:49.006Z,1019.20
2017-03-27T06:52:50.054Z,1019.17
2017-03-27T06:53:44.077Z,1019.20
2017-03-27T06:54:44.111Z,1019.22
2017-03-27T06:55:39.327Z,1019.21
2017-03-27T06:56:34.120Z,1019.22
2017-03-27T06:57:28.208Z,1019.23
2017-03-27T06:58:28.257Z,1019.22
2017-03-27T06:59:22.298Z,1019.19
2017-03-27T07:00:23.320Z,1019.14
2017-03-27T07:01:24.380Z,1019.20
2017-03-27T07:02:24.552Z,1019.18
2017-03-27T07:03:19.454Z,1019.19
2017-03-27T07:04:19.460Z,1019.21
2017-03-27T07:05:13.517Z,1019.22
2017-03-27T07:06:13.676Z,1019.24
2017-03-27T07:07:13.565Z,1019.20
2017-03-27T07:08:19.691Z,1019.21
2017-03-27T07:09:14.702Z,1019.26
2017-03-27T07:10:09.650Z,1019.22
2017-03-27T07:11:04.432Z,1019.26
2017-03-27T07:12:04.454Z,1019.26
2017-03-27T07:12:58.057Z,1019.22
2017-03-27T07:13:57.871Z,1019.24
2017-03-27T07:14:51.878Z,1019.22
2017-03-27T07:15:52.016Z,1019.23
2017-03-27T07:16:45.969Z,1019.25
2017-03-27T07:17:46.040Z,1019.21
2017-03-27T07:18:41.379Z,1019.24
2017-03-27T07:19:36.733Z,1019.30
2017-03-27T07:20:30.169Z,1019.27
2017-03-27T07:21:30.256Z,1019.28
2017-03-27T07:22:25.239Z,1019.28
2017-03-27T07:23:20.276Z,1019.29
2017-03-27T07:24:15.599Z,1019.24
2017-03-27T07:25:16.348Z,1019.20
2017-03-27T07:26:16.394Z,1019.22
2017-03-27T07:27:05.732Z,1019.22
2017-03-27T07:28:05.658Z,1019.26
2017-03-27T07:29:00.570Z,1019.22
2017-03-27T07:30:00.847Z,1019.23
2017-03-27T07:30:55.588Z,1019.20
2017-03-27T07:31:50.616Z,1019.19
2017-03-27T07:32:50.719Z,1019.17
2017-03-27T07:33:45.751Z,1019.20
2017-03-27T07:34:40.251Z,1019.18
2017-03-27T07:35:40.372Z,1019.19
2017-03-27T07:36:33.931Z,1019.20
2017-03-27T07:37:33.878Z,1019.21
2017-03-27T07:38:28.977Z,1019.19
2017-03-27T07:39:28.980Z,1019.22
2017-03-27T07:40:24.029Z,1019.20
2017-03-27T07:41:19.070Z,1019.19
2017-03-27T07:42:13.616Z,1019.25
2017-03-27T07:43:13.701Z,1019.23
2017-03-27T07:44:08.202Z,1019.26
2017-03-27T07:45:03.223Z,1019.26
2017-03-27T07:45:58.264Z,1019.22
2017-03-27T07:46:59.343Z,1019.24
2017-03-27T07:48:00.371Z,1019.26
2017-03-27T07:48:49.461Z,1019.30
2017-03-27T07:49:45.077Z,1019.29
2017-03-27T07:50:38.501Z,1019.28
2017-03-27T07:51:38.634Z,1019.29
2017-03-27T07:52:33.555Z,1019.32
2017-03-27T07:53:28.638Z,1019.31
2017-03-27T07:54:28.650Z,1019.33
2017-03-27T07:55:22.706Z,1019.32
2017-03-27T07:56:22.829Z,1019.31
2017-03-27T07:57:17.780Z,1019.36
2017-03-27T07:58:11.851Z,1019.31
2017-03-27T07:59:11.887Z,1019.39
2017-03-27T08:00:06.986Z,1019.34
2017-03-27T08:01:01.995Z,1019.32
2017-03-27T08:01:50.957Z,1019.35
2017-03-27T08:02:46.991Z,1019.33
2017-03-27T08:03:46.555Z,1019.32
2017-03-27T08:04:41.163Z,1019.36
2017-03-27T08:05:35.157Z,1019.34
2017-03-27T08:06:29.208Z,1019.32
2017-03-27T08:07:24.246Z,1019.34
2017-03-27T08:08:13.660Z,1019.31
2017-03-27T08:09:01.417Z,1019.26
2017-03-27T08:09:55.434Z,1019.30
2017-03-27T08:10:49.945Z,1019.27
2017-03-27T08:11:50.757Z,1019.25
2017-03-27T08:12:44.737Z,1019.30
2017-03-27T08:13:38.845Z,1019.27
2017-03-27T08:14:38.664Z,1019.26
2017-03-27T08:15:33.711Z,1019.28
2017-03-27T08:16:28.942Z,1019.28
2017-03-27T08:17:29.168Z,1019.25
2017-03-27T08:18:23.254Z,1019.29
2017-03-27T08:19:18.670Z,1019.24
2017-03-27T08:20:18.727Z,1019.20
2017-03-27T08:21:11.998Z,1019.23
2017-03-27T08:22:06.047Z,1019.26
2017-03-27T08:23:06.079Z,1019.25
2017-03-27T08:24:00.104Z,1019.23
2017-03-27T08:24:54.425Z,1019.28
2017-03-27T08:25:48.271Z,1019.24
2017-03-27T08:26:48.259Z,1019.19
2017-03-27T08:27:43.332Z,1019.20
2017-03-27T08:28:38.337Z,1019.23
2017-03-27T08:29:38.526Z,1019.23
2017-03-27T08:30:32.464Z,1019.21
2017-03-27T08:31:32.510Z,1019.20
2017-03-27T08:32:27.564Z,1019.22
2017-03-27T08:33:21.897Z,1019.19
2017-03-27T08:34:21.818Z,1019.21
2017-03-27T08:35:17.845Z,1019.22
2017-03-27T08:36:06.021Z,1019.20
2017-03-27T08:37:00.814Z,1019.24
2017-03-27T08:37:49.028Z,1019.21
2017-03-27T08:38:48.870Z,1019.19
2017-03-27T08:39:43.931Z,1019.26
2017-03-27T08:40:38.999Z,1019.24
2017-03-27T08:41:39.296Z,1019.23
2017-03-27T08:42:34.114Z,1019.23
2017-03-27T08:43:29.141Z,1019.15
2017-03-27T08:44:23.271Z,1019.21
2017-03-27T08:45:23.218Z,1019.22
2017-03-27T08:46:18.283Z,1019.23
2017-03-27T08:47:13.644Z,1019.24
2017-03-27T08:48:13.422Z,1019.17
2017-03-27T08:49:08.431Z,1019.18
2017-03-27T08:50:02.478Z,1019.18
2017-03-27T08:50:57.111Z,1019.15
2017-03-27T08:51:50.587Z,1019.14
2017-03-27T08:52:51.955Z,1019.16
2017-03-27T08:53:51.703Z,1019.12
2017-03-27T08:54:51.829Z,1019.13
2017-03-27T08:55:45.757Z,1019.12
2017-03-27T08:56:45.848Z,1019.12
2017-03-27T08:57:39.856Z,1019.09
2017-03-27T08:58:33.873Z,1019.04
2017-03-27T08:59:34.041Z,1019.09
2017-03-27T09:00:29.452Z,1019.07
2017-03-27T09:01:30.533Z,1019.08
2017-03-27T09:02:30.759Z,1019.08
2017-03-27T09:03:24.189Z,1019.09
2017-03-27T09:04:24.594Z,1019.07
2017-03-27T09:05:19.308Z,1019.04
2017-03-27T09:06:08.292Z,1019.05
2017-03-27T09:07:03.320Z,1019.04
2017-03-27T09:08:03.477Z,1019.09
2017-03-27T09:08:58.780Z,1019.00
2017-03-27T09:09:52.929Z,1019.02
2017-03-27T09:10:47.532Z,1018.98
2017-03-27T09:11:47.568Z,1019.01
2017-03-27T09:12:42.674Z,1019.01
2017-03-27T09:13:36.695Z,1019.03
2017-03-27T09:14:31.119Z,1018.99
2017-03-27T09:15:31.282Z,1018.97
2017-03-27T09:16:25.833Z,1019.00
2017-03-27T09:17:20.070Z,1019.00
2017-03-27T09:18:20.023Z,1019.00
2017-03-27T09:19:15.008Z,1019.01
2017-03-27T09:20:10.130Z,1018.94
2017-03-27T09:21:04.554Z,1019.03
2017-03-27T09:22:04.564Z,1019.05
2017-03-27T09:22:59.608Z,1019.10
2017-03-27T09:23:54.321Z,1019.10
2017-03-27T09:24:49.336Z,1019.05
2017-03-27T09:25:55.334Z,1019.07
2017-03-27T09:26:50.484Z,1019.05
2017-03-27T09:27:50.552Z,1019.04
2017-03-27T09:28:50.493Z,1019.08
2017-03-27T09:29:44.548Z,1019.03
2017-03-27T09:30:44.672Z,1019.02
2017-03-27T09:31:39.081Z,1019.02
2017-03-27T09:32:39.150Z,1018.95
2017-03-27T09:33:33.802Z,1019.03
2017-03-27T09:34:33.813Z,1019.03
2017-03-27T09:35:27.837Z,1019.05
2017-03-27T09:36:27.877Z,1018.99
2017-03-27T09:37:22.955Z,1019.02
2017-03-27T09:38:18.331Z,1019.03
2017-03-27T09:39:07.507Z,1019.06
2017-03-27T09:40:02.369Z,1019.03
2017-03-27T09:41:02.117Z,1019.01
2017-03-27T09:41:57.330Z,1019.00
2017-03-27T09:42:51.343Z,1018.95
2017-03-27T09:43:51.600Z,1019.01
2017-03-27T09:44:45.380Z,1018.96
2017-03-27T09:45:39.984Z,1019.00
2017-03-27T09:46:34.537Z,1019.00
2017-03-27T09:47:34.516Z,1018.95
2017-03-27T09:48:34.673Z,1018.97
2017-03-27T09:49:34.962Z,1018.95
2017-03-27T09:50:22.738Z,1018.96
2017-03-27T09:51:17.763Z,1018.88
2017-03-27T09:52:12.232Z,1018.79
2017-03-27T09:53:00.871Z,1018.90
2017-03-27T09:53:55.918Z,1018.88
2017-03-27T09:54:55.953Z,1018.93
2017-03-27T09:55:44.983Z,1018.85
2017-03-27T09:56:39.141Z,1018.89
2017-03-27T09:57:39.112Z,1018.86
2017-03-27T09:58:33.373Z,1018.88
2017-03-27T09:59:33.299Z,1018.88
2017-03-27T10:00:28.340Z,1018.91
2017-03-27T10:01:22.585Z,1018.82
2017-03-27T10:02:22.400Z,1018.81
2017-03-27T10:03:17.420Z,1018.80
2017-03-27T10:04:13.100Z,1018.82
2017-03-27T10:05:06.540Z,1018.85
2017-03-27T10:06:01.676Z,1018.86
2017-03-27T10:07:01.620Z,1018.80
2017-03-27T10:08:01.661Z,1018.84
2017-03-27T10:09:01.703Z,1018.83
2017-03-27T10:10:01.797Z,1018.83
2017-03-27T10:10:55.849Z,1018.80
2017-03-27T10:11:56.120Z,1018.78
2017-03-27T10:12:51.003Z,1018.78
2017-03-27T10:13:46.443Z,1018.73
2017-03-27T10:14:40.013Z,1018.77
2017-03-27T10:15:41.047Z,1018.81
2017-03-27T10:16:36.124Z,1018.79
2017-03-27T10:17:36.438Z,1018.72
2017-03-27T10:18:31.229Z,1018.77
2017-03-27T10:19:26.227Z,1018.79
2017-03-27T10:20:27.298Z,1018.84
2017-03-27T10:21:27.326Z,1018.75
2017-03-27T10:22:21.354Z,1018.78
2017-03-27T10:23:21.470Z,1018.76
2017-03-27T10:24:15.841Z,1018.73
2017-03-27T10:25:15.654Z,1018.72
2017-03-27T10:26:10.608Z,1018.72
2017-03-27T10:27:04.617Z,1018.73
2017-03-27T10:27:59.715Z,1018.74
2017-03-27T10:28:48.322Z,1018.73
2017-03-27T10:29:41.860Z,1018.72
2017-03-27T10:30:36.999Z,1018.68
2017-03-27T10:31:36.915Z,1018.70
2017-03-27T10:32:32.012Z,1018.74
2017-03-27T10:33:32.014Z,1018.63
2017-03-27T10:34:27.443Z,1018.73
2017-03-27T10:35:22.105Z,1018.71
2017-03-27T10:36:22.355Z,1018.62
2017-03-27T10:37:16.354Z,1018.69
2017-03-27T10:38:16.311Z,1018.76
2017-03-27T10:39:16.296Z,1018.71
2017-03-27T10:40:10.358Z,1018.72
2017-03-27T10:41:10.483Z,1018.67
2017-03-27T10:42:05.412Z,1018.67
2017-03-27T10:43:05.519Z,1018.69
2017-03-27T10:44:00.544Z,1018.63
2017-03-27T10:44:55.570Z,1018.55
2017-03-27T10:45:44.950Z,1018.59
2017-03-27T10:46:44.699Z,1018.60
2017-03-27T10:47:44.764Z,1018.64
2017-03-27T10:48:39.793Z,1018.58
2017-03-27T10:49:39.836Z,1018.55
2017-03-27T10:50:34.930Z,1018.61
2017-03-27T10:51:29.306Z,1018.59
2017-03-27T10:52:29.107Z,1018.52
2017-03-27T10:53:23.500Z,1018.56
2017-03-27T10:54:23.532Z,1018.60
2017-03-27T10:55:18.127Z,1018.46
2017-03-27T10:56:12.165Z,1018.48
2017-03-27T10:57:12.484Z,1018.56
2017-03-27T10:58:06.292Z,1018.57
2017-03-27T10:59:06.346Z,1018.53
2017-03-27T11:00:01.464Z,1018.51
2017-03-27T11:00:55.900Z,1018.48
2017-03-27T11:01:50.503Z,1018.58
2017-03-27T11:02:45.856Z,1018.57
2017-03-27T11:03:39.612Z,1018.52
2017-03-27T11:04:39.626Z,1018.54
2017-03-27T11:05:34.703Z,1018.51
2017-03-27T11:06:28.878Z,1018.58
2017-03-27T11:07:17.795Z,1018.50
2017-03-27T11:08:18.128Z,1018.46
2017-03-27T11:09:11.900Z,1018.47
2017-03-27T11:10:06.996Z,1018.45
2017-03-27T11:11:07.176Z,1018.40
2017-03-27T11:12:02.061Z,1018.35
2017-03-27T11:12:57.637Z,1018.35
2017-03-27T11:13:57.603Z,1018.43